createdAt,value
2022-10-08T00:00:58.703Z,101745.41
2022-10-08T00:03:32.199Z,101742.41
2022-10-08T00:06:03.853Z,101736.69
2022-10-08T00:08:37.327Z,101718.94
2022-10-08T00:11:13.480Z,101721.91
2022-10-08T00:13:43.913Z,101729.94
2022-10-08T00:16:17.202Z,101726.66
2022-10-08T00:18:52.366Z,101732.84
2022-10-08T00:21:25.641Z,101726.78
2022-10-08T00:23:56.273Z,101714.03
2022-10-08T00:26:37.520Z,101704.19
2022-10-08T00:29:09.731Z,101700.94
2022-10-08T00:31:47.933Z,101698.28
2022-10-08T00:34:21.229Z,101718.59
2022-10-08T00:36:57.842Z,101722.69
2022-10-08T00:39:31.117Z,101727.06
2022-10-08T00:42:02.332Z,101712.97
2022-10-08T00:44:59.142Z,101718.25
2022-10-08T00:47:40.640Z,101724.03
2022-10-08T00:50:17.754Z,101717.47
2022-10-08T00:52:58.752Z,101716.91
2022-10-08T00:55:29.428Z,101730.16
2022-10-08T00:58:04.571Z,101746.19
2022-10-08T01:00:36.117Z,101741.78
2022-10-08T01:03:06.408Z,101751.38
2022-10-08T01:05:52.497Z,101744.81
2022-10-08T01:08:35.467Z,101750.88
2022-10-08T01:11:14.289Z,101745.47
2022-10-08T01:13:55.593Z,101741.91
2022-10-08T01:16:35.227Z,101741.88
2022-10-08T01:19:23.373Z,101753.59
2022-10-08T01:22:09.264Z,101746.81
2022-10-08T01:25:03.674Z,101742.00
2022-10-08T01:27:44.009Z,101742.97
2022-10-08T01:30:18.427Z,101739.00
2022-10-08T01:32:56.554Z,101743.84
2022-10-08T01:35:33.194Z,101747.22
2022-10-08T01:38:07.813Z,101740.38
2022-10-08T01:40:43.663Z,101736.59
2022-10-08T01:43:18.697Z,101739.66
2022-10-08T01:45:54.385Z,101730.25
2022-10-08T01:48:31.206Z,101733.50
2022-10-08T01:51:04.402Z,101730.63
2022-10-08T01:53:41.394Z,101732.84
2022-10-08T01:56:18.624Z,101729.00
2022-10-08T01:58:56.790Z,101725.31
2022-10-08T02:01:36.687Z,101733.50
2022-10-08T02:04:23.552Z,101731.41
2022-10-08T02:06:57.781Z,101734.00
2022-10-08T02:09:44.492Z,101731.06
2022-10-08T02:12:14.587Z,101743.88
2022-10-08T02:14:50.468Z,101741.09
2022-10-08T02:17:35.586Z,101740.75
2022-10-08T02:20:19.349Z,101743.38
2022-10-08T02:22:59.346Z,101742.09
2022-10-08T02:25:35.810Z,101742.09
2022-10-08T02:28:13.577Z,101745.28
2022-10-08T02:30:54.027Z,101745.72
2022-10-08T02:33:33.627Z,101746.06
2022-10-08T02:36:10.723Z,101744.50
2022-10-08T02:38:46.268Z,101742.88
2022-10-08T02:41:18.714Z,101753.97
2022-10-08T02:43:51.863Z,101745.72
2022-10-08T02:46:31.536Z,101754.22
2022-10-08T02:49:08.462Z,101743.84
2022-10-08T02:51:43.061Z,101742.75
2022-10-08T02:54:12.597Z,101752.69
2022-10-08T02:56:48.076Z,101745.56
2022-10-08T02:59:19.382Z,101747.94
2022-10-08T03:01:55.305Z,101763.31
2022-10-08T03:04:29.301Z,101753.44
2022-10-08T03:07:00.895Z,101754.81
2022-10-08T03:09:37.302Z,101759.50
2022-10-08T03:12:08.905Z,101764.22
2022-10-08T03:14:42.986Z,101768.38
2022-10-08T03:17:17.077Z,101766.91
2022-10-08T03:19:45.916Z,101777.38
2022-10-08T03:22:15.232Z,101781.00
2022-10-08T03:24:43.905Z,101769.19
2022-10-08T03:27:15.462Z,101794.25
2022-10-08T03:29:49.475Z,101784.31
2022-10-08T03:32:22.145Z,101783.97
2022-10-08T03:34:50.915Z,101785.81
2022-10-08T03:37:21.862Z,101786.69
2022-10-08T03:39:50.929Z,101788.94
2022-10-08T03:42:20.910Z,101794.88
2022-10-08T03:44:50.467Z,101791.28
2022-10-08T03:47:23.721Z,101803.09
2022-10-08T03:50:04.364Z,101799.78
2022-10-08T03:52:34.119Z,101801.56
2022-10-08T03:55:02.677Z,101795.72
2022-10-08T03:57:31.818Z,101801.31
2022-10-08T04:00:02.053Z,101809.44
2022-10-08T04:02:33.472Z,101810.25
2022-10-08T04:05:04.097Z,101801.34
2022-10-08T04:07:34.163Z,101805.09
2022-10-08T04:10:05.089Z,101804.50
2022-10-08T04:12:36.841Z,101818.16
2022-10-08T04:15:07.761Z,101808.66
2022-10-08T04:17:38.711Z,101803.69
2022-10-08T04:20:08.587Z,101802.72
2022-10-08T04:22:38.320Z,101805.78
2022-10-08T04:25:07.866Z,101798.66
2022-10-08T04:27:37.912Z,101803.94
2022-10-08T04:30:09.300Z,101807.09
2022-10-08T04:32:40.904Z,101806.94
2022-10-08T04:35:12.560Z,101813.09
2022-10-08T04:37:42.420Z,101805.59
2022-10-08T04:40:12.506Z,101807.88
2022-10-08T04:42:42.799Z,101805.00
2022-10-08T04:45:13.404Z,101807.28
2022-10-08T04:47:45.257Z,101815.50
2022-10-08T04:50:14.273Z,101817.09
2022-10-08T04:52:47.762Z,101812.28
2022-10-08T04:55:19.664Z,101815.16
2022-10-08T04:57:49.018Z,101814.97
2022-10-08T05:00:22.836Z,101811.94
2022-10-08T05:02:53.818Z,101824.50
2022-10-08T05:05:25.940Z,101822.28
2022-10-08T05:07:56.969Z,101826.09
2022-10-08T05:10:28.713Z,101829.16
2022-10-08T05:12:58.763Z,101823.97
2022-10-08T05:15:27.716Z,101826.13
2022-10-08T05:18:08.074Z,101828.81
2022-10-08T05:20:40.772Z,101833.88
2022-10-08T05:23:11.289Z,101842.94
2022-10-08T05:25:40.604Z,101841.31
2022-10-08T05:28:11.258Z,101859.69
2022-10-08T05:30:40.856Z,101851.72
2022-10-08T05:33:10.859Z,101860.53
2022-10-08T05:35:40.203Z,101870.56
2022-10-08T05:38:08.738Z,101864.00
2022-10-08T05:40:37.292Z,101870.63
2022-10-08T05:43:08.331Z,101880.41
2022-10-08T05:45:40.428Z,101875.97
2022-10-08T05:48:36.160Z,101879.19
2022-10-08T05:51:10.397Z,101877.16
2022-10-08T05:53:47.428Z,101879.84
2022-10-08T05:56:21.801Z,101886.47
2022-10-08T05:58:54.011Z,101889.63
2022-10-08T06:01:26.445Z,101894.22
2022-10-08T06:04:04.484Z,101892.28
2022-10-08T06:06:38.582Z,101898.13
2022-10-08T06:09:10.148Z,101909.19
2022-10-08T06:11:41.745Z,101911.41
2022-10-08T06:14:14.235Z,101905.72
2022-10-08T06:16:43.215Z,101922.09
2022-10-08T06:19:14.783Z,101922.16
2022-10-08T06:21:46.707Z,101927.97
2022-10-08T06:24:16.595Z,101936.34
2022-10-08T06:26:48.867Z,101934.59
2022-10-08T06:29:22.833Z,101942.53
2022-10-08T06:31:57.830Z,101949.94
2022-10-08T06:34:29.244Z,101960.78
2022-10-08T06:37:00.193Z,101957.53
2022-10-08T06:39:31.550Z,101966.25
2022-10-08T06:42:00.854Z,101972.66
2022-10-08T06:44:29.828Z,101965.00
2022-10-08T06:46:59.277Z,101970.38
2022-10-08T06:49:29.574Z,101973.72
2022-10-08T06:52:02.275Z,101978.38
2022-10-08T06:54:32.444Z,101988.56
2022-10-08T06:57:03.283Z,101982.88
2022-10-08T06:59:33.398Z,101982.81
2022-10-08T07:02:06.971Z,101985.59
2022-10-08T07:04:38.387Z,101999.25
2022-10-08T07:07:07.046Z,101996.81
2022-10-08T07:09:37.547Z,101996.75
2022-10-08T07:12:06.925Z,102016.81
2022-10-08T07:14:36.167Z,102012.34
2022-10-08T07:17:09.368Z,102012.72
2022-10-08T07:19:42.648Z,102010.09
2022-10-08T07:22:11.543Z,102016.72
2022-10-08T07:24:41.053Z,102020.50
2022-10-08T07:27:10.908Z,102017.72
2022-10-08T07:29:39.459Z,102013.47
2022-10-08T07:32:10.487Z,102026.16
2022-10-08T07:34:42.856Z,102025.47
2022-10-08T07:37:11.590Z,102031.88
2022-10-08T07:39:41.250Z,102031.94
2022-10-08T07:42:10.291Z,102031.22
2022-10-08T07:44:38.908Z,102040.50
2022-10-08T07:47:09.707Z,102048.38
2022-10-08T07:49:41.619Z,102055.84
2022-10-08T07:52:15.801Z,102065.44
2022-10-08T07:54:45.670Z,102067.28
2022-10-08T07:57:14.235Z,102066.22
2022-10-08T07:59:43.266Z,102070.34
2022-10-08T08:02:13.483Z,102067.41
2022-10-08T08:04:43.866Z,102074.38
2022-10-08T08:07:12.539Z,102074.28
2022-10-08T08:09:42.584Z,102076.41
2022-10-08T08:12:12.496Z,102085.06
2022-10-08T08:14:44.447Z,102090.53
2022-10-08T08:17:13.235Z,102085.78
2022-10-08T08:19:44.614Z,102076.66
2022-10-08T08:22:27.264Z,102082.94
2022-10-08T08:24:56.261Z,102079.69
2022-10-08T08:27:30.717Z,102089.75
2022-10-08T08:29:59.283Z,102080.03
2022-10-08T08:32:33.858Z,102093.44
2022-10-08T08:35:07.914Z,102093.28
2022-10-08T08:37:36.450Z,102091.72
2022-10-08T08:40:11.344Z,102099.00
2022-10-08T08:45:47.134Z,102103.56
2022-10-08T08:48:20.854Z,102113.50
2022-10-08T08:50:58.943Z,102118.94
2022-10-08T08:53:30.293Z,102118.84
2022-10-08T08:56:10.569Z,102114.78
2022-10-08T08:58:44.226Z,102122.69
2022-10-08T09:14:47.153Z,102131.56
2022-10-08T09:17:19.432Z,102137.94
2022-10-08T09:19:49.885Z,102134.19
2022-10-08T09:22:26.382Z,102149.03
2022-10-08T09:25:00.740Z,102146.16
2022-10-08T09:27:54.241Z,102150.03
2022-10-08T09:30:45.980Z,102148.28
2022-10-08T09:33:26.412Z,102154.50
2022-10-08T09:35:56.743Z,102145.28
2022-10-08T09:38:30.976Z,102158.50
2022-10-08T09:41:10.806Z,102163.22
2022-10-08T09:46:48.195Z,102154.16
2022-10-08T09:49:36.948Z,102160.03
2022-10-08T09:52:17.123Z,102172.66
2022-10-08T09:54:50.296Z,102158.34
2022-10-08T09:57:38.456Z,102172.41
2022-10-08T10:00:36.491Z,102168.94
2022-10-08T10:03:25.556Z,102176.19
2022-10-08T10:06:01.006Z,102181.66
2022-10-08T10:08:59.001Z,102174.69
2022-10-08T10:11:41.161Z,102177.56
2022-10-08T10:14:27.848Z,102171.78
2022-10-08T10:17:06.024Z,102186.91
2022-10-08T10:19:53.377Z,102190.44
2022-10-08T10:22:30.867Z,102189.63
2022-10-08T10:28:16.588Z,102190.50
2022-10-08T10:31:04.757Z,102198.06
2022-10-08T10:33:41.245Z,102196.16
2022-10-08T10:39:52.556Z,102205.75
2022-10-08T10:42:50.923Z,102198.31
2022-10-08T10:56:14.056Z,102212.09
2022-10-08T11:05:51.735Z,102225.16
2022-10-08T11:12:01.323Z,102222.59
2022-10-08T11:15:34.427Z,102231.63
2022-10-08T11:18:26.707Z,102234.88
2022-10-08T11:21:21.542Z,102231.13
2022-10-08T11:30:29.430Z,102226.22
2022-10-08T11:33:17.478Z,102241.84
2022-10-08T11:39:39.976Z,102240.44
2022-10-08T11:42:17.867Z,102239.81
2022-10-08T11:44:47.328Z,102243.53
2022-10-08T11:47:51.181Z,102242.00
2022-10-08T11:50:34.009Z,102240.91
2022-10-08T11:53:24.543Z,102249.00
2022-10-08T11:56:04.454Z,102245.38
2022-10-08T11:58:35.430Z,102246.94
2022-10-08T12:01:06.845Z,102243.41
2022-10-08T12:03:39.098Z,102243.41
2022-10-08T12:06:21.394Z,102251.44
2022-10-08T12:08:57.517Z,102244.88
2022-10-08T12:11:52.048Z,102244.75
2022-10-08T12:14:49.585Z,102236.13
2022-10-08T12:17:20.886Z,102244.03
2022-10-08T12:20:22.321Z,102234.63
2022-10-08T12:23:08.881Z,102247.22
2022-10-08T12:26:12.374Z,102244.16
2022-10-08T12:28:53.054Z,102241.91
2022-10-08T12:31:39.620Z,102247.03
2022-10-08T12:34:19.934Z,102253.44
2022-10-08T12:37:04.694Z,102257.47
2022-10-08T12:39:43.400Z,102255.38
2022-10-08T12:42:20.909Z,102263.09
2022-10-08T12:45:16.585Z,102261.16
2022-10-08T12:47:53.826Z,102265.06
2022-10-08T12:50:47.159Z,102268.16
2022-10-08T12:53:18.850Z,102267.44
2022-10-08T12:55:51.287Z,102278.75
2022-10-08T12:58:23.990Z,102275.50
2022-10-08T13:01:03.028Z,102273.47
2022-10-08T13:03:35.454Z,102278.28
2022-10-08T13:06:23.062Z,102277.25
2022-10-08T13:08:53.433Z,102277.38
2022-10-08T13:11:23.152Z,102281.59
2022-10-08T13:13:53.244Z,102287.66
2022-10-08T13:16:26.744Z,102288.75
2022-10-08T13:19:00.172Z,102285.72
2022-10-08T13:21:40.887Z,102269.28
2022-10-08T13:24:38.669Z,102277.78
2022-10-08T13:27:22.506Z,102282.53
2022-10-08T13:29:51.197Z,102276.97
2022-10-08T13:32:27.020Z,102284.56
2022-10-08T13:35:01.029Z,102284.09
2022-10-08T13:37:38.839Z,102296.94
2022-10-08T13:40:21.671Z,102295.34
2022-10-08T13:42:52.126Z,102303.94
2022-10-08T13:45:26.476Z,102304.84
2022-10-08T13:47:59.269Z,102311.09
2022-10-08T13:50:28.248Z,102316.97
2022-10-08T13:53:01.504Z,102322.63
2022-10-08T13:55:35.456Z,102323.13
2022-10-08T13:58:06.739Z,102312.41
2022-10-08T14:00:40.026Z,102318.75
2022-10-08T14:03:25.572Z,102304.75
2022-10-08T14:05:54.730Z,102304.50
2022-10-08T14:08:31.539Z,102317.38
2022-10-08T14:11:01.468Z,102320.25
2022-10-08T14:13:31.001Z,102306.97
2022-10-08T14:16:00.581Z,102318.72
2022-10-08T14:18:30.727Z,102319.38
2022-10-08T14:21:01.360Z,102316.38
2022-10-08T14:23:33.323Z,102322.75
2022-10-08T14:26:02.984Z,102322.44
2022-10-08T14:28:32.265Z,102326.25
2022-10-08T14:31:04.235Z,102331.13
2022-10-08T14:33:35.590Z,102323.00
2022-10-08T14:36:17.594Z,102327.28
2022-10-08T14:38:46.760Z,102325.16
2022-10-08T14:41:18.591Z,102333.50
2022-10-08T14:43:48.159Z,102338.91
2022-10-08T14:46:21.336Z,102345.75
2022-10-08T14:48:51.874Z,102331.38
2022-10-08T14:51:20.765Z,102334.72
2022-10-08T14:53:50.285Z,102342.31
2022-10-08T14:56:20.717Z,102339.97
2022-10-08T14:58:51.727Z,102335.91
2022-10-08T15:01:20.589Z,102350.91
2022-10-08T15:03:53.360Z,102359.88
2022-10-08T15:06:22.601Z,102353.28
2022-10-08T15:08:53.950Z,102357.19
2022-10-08T15:11:24.309Z,102356.56
2022-10-08T15:13:56.044Z,102357.78
2022-10-08T15:16:24.960Z,102356.22
2022-10-08T15:18:54.745Z,102358.06
2022-10-08T15:21:23.238Z,102362.19
2022-10-08T15:24:01.348Z,102366.47
2022-10-08T15:26:32.377Z,102359.06
2022-10-08T15:29:02.025Z,102366.00
2022-10-08T15:31:31.460Z,102367.56
2022-10-08T15:34:16.767Z,102368.81
2022-10-08T15:36:47.478Z,102372.31
2022-10-08T15:39:21.464Z,102373.81
2022-10-08T15:41:53.354Z,102383.63
2022-10-08T15:44:26.340Z,102373.66
2022-10-08T15:47:03.045Z,102378.47
2022-10-08T15:49:35.301Z,102387.53
2022-10-08T15:52:15.963Z,102382.56
2022-10-08T15:54:48.666Z,102382.31
2022-10-08T15:57:19.785Z,102389.09
2022-10-08T15:59:48.435Z,102390.97
2022-10-08T16:02:24.488Z,102384.91
2022-10-08T16:04:54.911Z,102390.47
2022-10-08T16:07:24.123Z,102397.38
2022-10-08T16:09:53.012Z,102404.97
2022-10-08T16:12:29.875Z,102400.50
2022-10-08T16:15:00.141Z,102401.84
2022-10-08T16:17:29.201Z,102407.91
2022-10-08T16:19:59.641Z,102407.81
2022-10-08T16:22:35.504Z,102417.63
2022-10-08T16:25:05.663Z,102424.53
2022-10-08T16:27:35.203Z,102417.88
2022-10-08T16:30:04.391Z,102421.59
2022-10-08T16:32:33.318Z,102424.25
2022-10-08T16:35:03.968Z,102427.31
2022-10-08T16:37:32.731Z,102419.47
2022-10-08T16:40:04.034Z,102427.41
2022-10-08T16:42:33.003Z,102424.50
2022-10-08T16:45:05.013Z,102435.78
2022-10-08T16:47:36.859Z,102445.75
2022-10-08T16:50:08.723Z,102441.03
2022-10-08T16:52:37.913Z,102443.25
2022-10-08T16:55:07.230Z,102446.19
2022-10-08T16:57:36.279Z,102446.19
2022-10-08T17:00:06.223Z,102455.84
2022-10-08T17:02:35.163Z,102456.78
2022-10-08T17:05:10.393Z,102469.13
2022-10-08T17:07:38.750Z,102468.75
2022-10-08T17:10:11.165Z,102464.50
2022-10-08T17:12:40.655Z,102474.38
2022-10-08T17:15:14.984Z,102470.44
2022-10-08T17:17:51.970Z,102476.03
2022-10-08T17:20:29.128Z,102461.03
2022-10-08T17:23:01.991Z,102473.50
2022-10-08T17:25:31.329Z,102476.41
2022-10-08T17:28:00.148Z,102476.63
2022-10-08T17:30:28.867Z,102478.03
2022-10-08T17:32:57.856Z,102488.34
2022-10-08T17:35:28.321Z,102486.25
2022-10-08T17:37:59.255Z,102478.88
2022-10-08T17:40:31.642Z,102495.72
2022-10-08T17:43:00.776Z,102497.00
2022-10-08T17:45:33.107Z,102501.94
2022-10-08T17:48:01.877Z,102501.13
2022-10-08T17:50:43.640Z,102507.66
2022-10-08T17:53:17.252Z,102510.84
2022-10-08T17:55:46.682Z,102520.38
2022-10-08T17:58:16.684Z,102520.53
2022-10-08T18:00:48.106Z,102519.75
2022-10-08T18:03:17.746Z,102524.28
2022-10-08T18:06:07.218Z,102533.47
2022-10-08T18:08:37.247Z,102532.41
2022-10-08T18:11:11.938Z,102528.44
2022-10-08T18:13:41.479Z,102535.13
2022-10-08T18:16:16.447Z,102542.06
2022-10-08T18:18:51.322Z,102543.31
2022-10-08T18:21:25.424Z,102543.91
2022-10-08T18:23:56.227Z,102549.56
2022-10-08T18:26:34.569Z,102555.53
2022-10-08T18:29:15.263Z,102561.00
2022-10-08T18:31:46.832Z,102554.56
2022-10-08T18:34:26.818Z,102551.22
2022-10-08T18:37:03.998Z,102560.97
2022-10-08T18:39:33.582Z,102570.91
2022-10-08T18:42:06.913Z,102562.00
2022-10-08T18:44:36.002Z,102567.69
2022-10-08T18:47:11.272Z,102572.78
2022-10-08T18:49:41.396Z,102573.72
2022-10-08T18:52:17.957Z,102571.25
2022-10-08T18:55:01.904Z,102586.50
2022-10-08T18:57:33.963Z,102578.41
2022-10-08T19:00:09.354Z,102590.41
2022-10-08T19:02:44.089Z,102586.19
2022-10-08T19:05:21.807Z,102585.28
2022-10-08T19:07:59.137Z,102595.59
2022-10-08T19:10:36.378Z,102587.59
2022-10-08T19:13:10.897Z,102590.78
2022-10-08T19:15:52.922Z,102598.03
2022-10-08T19:18:25.372Z,102595.75
2022-10-08T19:21:03.081Z,102609.22
2022-10-08T19:23:38.328Z,102608.44
2022-10-08T19:26:12.735Z,102613.00
2022-10-08T19:28:52.898Z,102608.72
2022-10-08T19:31:33.136Z,102612.34
2022-10-08T19:34:08.819Z,102614.31
2022-10-08T19:36:44.920Z,102611.56
2022-10-08T19:39:22.869Z,102610.97
2022-10-08T19:41:55.046Z,102615.47
2022-10-08T19:44:31.011Z,102603.41
2022-10-08T19:47:11.968Z,102618.50
2022-10-08T19:49:42.696Z,102615.63
2022-10-08T19:52:14.962Z,102622.28
2022-10-08T19:54:45.879Z,102620.16
2022-10-08T19:57:15.616Z,102623.84
2022-10-08T19:59:44.714Z,102619.53
2022-10-08T20:02:15.193Z,102628.59
2022-10-08T20:04:49.223Z,102629.78
2022-10-08T20:07:20.074Z,102637.09
2022-10-08T20:09:56.216Z,102629.72
2022-10-08T20:12:40.094Z,102633.34
2022-10-08T20:15:11.539Z,102642.81
2022-10-08T20:17:43.220Z,102639.22
2022-10-08T20:20:31.693Z,102635.28
2022-10-08T20:23:00.913Z,102640.63
2022-10-08T20:25:32.055Z,102633.53
2022-10-08T20:28:01.121Z,102635.16
2022-10-08T20:30:30.376Z,102645.50
2022-10-08T20:32:59.086Z,102639.84
2022-10-08T20:35:29.999Z,102635.47
2022-10-08T20:38:01.005Z,102645.44
2022-10-08T20:40:31.593Z,102641.19
2022-10-08T20:43:01.753Z,102651.13
2022-10-08T20:45:31.377Z,102653.00
2022-10-08T20:48:01.509Z,102653.13
2022-10-08T20:50:31.774Z,102664.13
2022-10-08T20:53:00.311Z,102658.94
2022-10-08T20:55:31.238Z,102656.09
2022-10-08T20:58:00.683Z,102658.59
2022-10-08T21:00:30.453Z,102651.47
2022-10-08T21:03:00.474Z,102653.41
2022-10-08T21:05:31.241Z,102651.66
2022-10-08T21:08:02.961Z,102654.56
2022-10-08T21:10:38.984Z,102662.50
2022-10-08T21:13:08.475Z,102660.41
2022-10-08T21:15:37.462Z,102657.50
2022-10-08T21:18:06.789Z,102657.47
2022-10-08T21:20:39.270Z,102655.28
2022-10-08T21:23:11.408Z,102653.38
2022-10-08T21:25:42.595Z,102649.47
2022-10-08T21:28:13.819Z,102662.84
2022-10-08T21:30:44.142Z,102660.06
2022-10-08T21:33:13.130Z,102653.16
2022-10-08T21:35:41.818Z,102648.56
2022-10-08T21:38:12.121Z,102657.06
2022-10-08T21:40:46.950Z,102662.50
2022-10-08T21:43:17.582Z,102662.66
2022-10-08T21:45:56.878Z,102658.38
2022-10-08T21:48:33.284Z,102661.22
2022-10-08T21:51:05.382Z,102674.72
2022-10-08T21:53:37.371Z,102667.66
2022-10-08T21:56:17.728Z,102667.75
2022-10-08T21:58:50.173Z,102671.44
2022-10-08T22:01:25.901Z,102676.91
2022-10-08T22:03:56.244Z,102672.38
2022-10-08T22:06:26.849Z,102671.44
2022-10-08T22:08:56.484Z,102666.41
2022-10-08T22:11:28.093Z,102660.09
2022-10-08T22:13:57.403Z,102662.78
2022-10-08T22:16:29.970Z,102670.06
2022-10-08T22:19:00.309Z,102672.06
2022-10-08T22:21:29.681Z,102676.63
2022-10-08T22:23:58.985Z,102672.28
2022-10-08T22:26:32.965Z,102677.03
2022-10-08T22:29:03.383Z,102665.38
2022-10-08T22:31:35.412Z,102670.75
2022-10-08T22:34:04.597Z,102677.09
2022-10-08T22:36:38.657Z,102674.47
2022-10-08T22:39:10.005Z,102667.50
2022-10-08T22:41:40.689Z,102668.47
2022-10-08T22:44:09.872Z,102669.22
2022-10-08T22:46:41.477Z,102668.41
2022-10-08T22:49:14.121Z,102662.19
2022-10-08T22:51:46.918Z,102666.75
2022-10-08T22:54:17.884Z,102665.03
2022-10-08T22:56:50.404Z,102669.94
2022-10-08T22:59:29.272Z,102661.56
2022-10-08T23:01:59.387Z,102675.94
2022-10-08T23:04:28.453Z,102675.44
2022-10-08T23:06:57.045Z,102670.19
2022-10-08T23:09:26.118Z,102678.91
2022-10-08T23:11:57.424Z,102672.63
2022-10-08T23:14:26.943Z,102675.66
2022-10-08T23:16:58.535Z,102663.09
2022-10-08T23:19:29.882Z,102670.03
2022-10-08T23:22:02.141Z,102665.59
2022-10-08T23:24:31.390Z,102671.09
2022-10-08T23:27:01.804Z,102672.34
2022-10-08T23:29:30.774Z,102669.66
2022-10-08T23:31:59.921Z,102667.72
2022-10-08T23:34:28.528Z,102657.91
2022-10-08T23:36:57.790Z,102669.59
2022-10-08T23:39:26.932Z,102659.03
2022-10-08T23:41:56.134Z,102669.00
2022-10-08T23:44:26.547Z,102660.03
2022-10-08T23:46:56.774Z,102665.56
2022-10-08T23:49:27.617Z,102669.13
2022-10-08T23:51:58.459Z,102665.72
2022-10-08T23:54:28.262Z,102667.56
2022-10-08T23:56:57.309Z,102662.28
2022-10-08T23:59:29.871Z,102659.75
